Time;durP1;ratioP1;P1;durP2;ratioP2;P2;SDS_P1;SDS_P2;PMS_P1;PMS_P2;Temp;Humidity;BMP_temperature;BMP_pressure;BME280_temperature;BME280_humidity;BME280_pressure;Samples;Min_cycle;Max_cycle;Signal;HPM_P1;HPM_P2
2024/01/15 00:00:46;;;;;;;443.77;249.82;;;-1.50;1.00;;;;;;4902700;28;20520;-83
2024/01/15 00:03:13;;;;;;;409.13;232.75;;;-1.40;99.90;;;;;;4859560;28;20072;-84
2024/01/15 00:05:41;;;;;;;451.70;254.77;;;-1.40;1.00;;;;;;4808335;28;20057;-83
2024/01/15 00:08:10;;;;;;;422.35;237.80;;;-1.30;1.00;;;;;;4768662;28;20061;-82
2024/01/15 00:10:38;;;;;;;399.00;219.32;;;-1.40;1.00;;;;;;4840800;28;20073;-83
2024/01/15 00:13:06;;;;;;;352.52;188.30;;;-1.50;1.00;;;;;;4830370;28;20069;-83
2024/01/15 00:15:33;;;;;;;377.95;202.90;;;-1.40;99.90;;;;;;4776844;28;20066;-84
2024/01/15 00:18:01;;;;;;;421.88;240.25;;;-1.40;1.00;;;;;;4825731;28;20130;-83
2024/01/15 00:20:28;;;;;;;449.98;254.68;;;-1.50;1.00;;;;;;4719724;29;20211;-84
2024/01/15 00:22:56;;;;;;;427.73;239.23;;;-1.50;1.00;;;;;;4780793;28;20058;-82
2024/01/15 00:25:25;;;;;;;421.35;238.63;;;-1.60;1.00;;;;;;4804486;28;21553;-83
2024/01/15 00:27:52;;;;;;;387.67;214.65;;;-1.60;99.90;;;;;;4739778;29;20070;-83
2024/01/15 00:30:20;;;;;;;412.90;236.68;;;-1.60;86.00;;;;;;4829384;28;20105;-82
2024/01/15 00:32:49;;;;;;;406.30;220.52;;;-1.60;1.00;;;;;;4852062;28;20065;-83
2024/01/15 00:35:17;;;;;;;391.90;217.90;;;-1.60;1.00;;;;;;4890343;28;20068;-82
2024/01/15 00:37:44;;;;;;;383.17;213.77;;;-1.50;1.00;;;;;;4865493;28;20072;-83
2024/01/15 00:40:11;;;;;;;353.98;198.23;;;-1.50;99.90;;;;;;4856755;28;20059;-83
2024/01/15 00:42:40;;;;;;;368.88;201.35;;;-1.60;1.00;;;;;;4846626;28;21059;-83
2024/01/15 00:45:08;;;;;;;381.10;212.13;;;-1.80;1.00;;;;;;4790568;28;21946;-82
2024/01/15 00:47:36;;;;;;;360.17;197.38;;;-1.70;1.00;;;;;;4832137;28;21273;-84
2024/01/15 00:50:03;;;;;;;318.65;176.18;;;-1.60;1.00;;;;;;4853540;28;21051;-83
2024/01/15 00:52:31;;;;;;;320.17;178.43;;;-1.60;1.00;;;;;;4810678;28;20073;-83
2024/01/15 00:54:58;;;;;;;332.10;184.60;;;-1.60;1.00;;;;;;4807824;28;20072;-85
2024/01/15 00:57:26;;;;;;;317.15;180.07;;;-1.60;1.00;;;;;;4802411;28;20060;-83
2024/01/15 00:59:55;;;;;;;304.77;168.63;;;-1.60;1.00;;;;;;4843392;28;20155;-84
2024/01/15 01:02:22;;;;;;;283.00;164.07;;;-1.60;99.90;;;;;;4820468;28;20069;-83
2024/01/15 01:04:50;;;;;;;254.43;142.55;;;-1.70;99.90;;;;;;4799816;28;20071;-83
2024/01/15 01:07:19;;;;;;;253.38;142.23;;;-1.60;1.00;;;;;;4834205;28;20053;-83
2024/01/15 01:09:48;;;;;;;262.25;143.95;;;-1.60;1.00;;;;;;4852392;28;20060;-81
2024/01/15 01:12:16;;;;;;;242.80;139.40;;;-1.60;1.00;;;;;;4831361;28;20054;-83
2024/01/15 01:14:44;;;;;;;236.60;131.98;;;-1.60;99.90;;;;;;4761132;28;20123;-82
2024/01/15 01:17:13;;;;;;;239.38;132.63;;;-1.60;99.90;;;;;;4856090;28;20145;-83
2024/01/15 01:19:41;;;;;;;268.00;152.23;;;-1.60;99.90;;;;;;4880301;28;20070;-82
2024/01/15 01:22:08;;;;;;;286.67;157.13;;;-1.70;1.00;;;;;;4920384;28;20074;-83
2024/01/15 01:24:35;;;;;;;288.77;156.77;;;-1.60;1.00;;;;;;4897995;28;20114;-83
2024/01/15 01:27:03;;;;;;;287.48;154.32;;;-1.60;99.90;;;;;;4874507;28;20054;-84
2024/01/15 01:29:31;;;;;;;273.05;150.57;;;-1.70;1.00;;;;;;4877723;28;20062;-84
2024/01/15 01:31:58;;;;;;;272.60;149.60;;;-1.70;99.90;;;;;;4916960;28;20184;-84
2024/01/15 01:34:27;;;;;;;269.08;147.15;;;-1.70;99.90;;;;;;4893100;28;20184;-82
2024/01/15 01:36:55;;;;;;;260.05;141.68;;;-1.70;99.90;;;;;;4895693;28;20071;-83
2024/01/15 01:39:22;;;;;;;258.65;139.23;;;-1.60;99.90;;;;;;4877372;28;20131;-83
2024/01/15 01:41:49;;;;;;;249.50;135.38;;;-1.60;99.90;;;;;;4839445;28;22350;-84
2024/01/15 01:44:19;;;;;;;230.32;130.27;;;-1.70;1.00;;;;;;4870979;28;20111;-83
2024/01/15 01:46:46;;;;;;;226.77;127.25;;;-1.70;24.10;;;;;;4835054;28;20069;-82
2024/01/15 01:49:14;;;;;;;189.75;107.22;;;-1.60;92.10;;;;;;4875383;28;20064;-83
2024/01/15 01:51:43;;;;;;;202.07;115.47;;;-1.70;1.00;;;;;;4891758;28;20071;-82
2024/01/15 01:54:13;;;;;;;215.32;118.70;;;-1.70;99.90;;;;;;4871184;28;20059;-84
2024/01/15 01:56:42;;;;;;;207.48;117.20;;;-1.50;1.00;;;;;;4860231;28;20065;-82
2024/01/15 01:59:12;;;;;;;202.38;114.30;;;-1.50;1.00;;;;;;4861388;28;20071;-81
2024/01/15 02:01:40;;;;;;;210.18;114.85;;;-1.50;1.00;;;;;;4830387;28;21103;-83
2024/01/15 02:04:09;;;;;;;201.70;113.68;;;-1.40;99.90;;;;;;4860534;28;20060;-83
2024/01/15 02:06:37;;;;;;;182.82;103.50;;;-1.40;1.00;;;;;;4888720;28;20075;-81
2024/01/15 02:09:06;;;;;;;182.23;104.07;;;-1.40;99.90;;;;;;4937269;28;20074;-83
2024/01/15 02:11:33;;;;;;;189.10;110.35;;;-1.40;99.90;;;;;;4898293;28;20048;-83
2024/01/15 02:14:01;;;;;;;194.88;108.50;;;-1.50;99.90;;;;;;4988492;28;20065;-84
2024/01/15 02:16:28;;;;;;;193.85;109.45;;;-1.50;1.00;;;;;;4997654;28;20050;-82
2024/01/15 02:18:56;;;;;;;180.88;102.03;;;-1.60;1.00;;;;;;4993555;28;20107;-83
2024/01/15 02:21:23;;;;;;;195.88;107.85;;;-1.60;1.00;;;;;;4988730;28;20080;-83
2024/01/15 02:23:52;;;;;;;212.68;119.63;;;-1.50;1.00;;;;;;4994647;28;20060;-82
2024/01/15 02:26:20;;;;;;;203.43;110.95;;;-1.50;45.50;;;;;;5027207;28;20067;-84
2024/01/15 02:28:47;;;;;;;208.10;117.53;;;-1.60;1.00;;;;;;4971129;28;20073;-83
2024/01/15 02:31:15;;;;;;;210.80;117.05;;;-1.70;1.00;;;;;;4986420;28;21687;-83
2024/01/15 02:33:45;;;;;;;220.88;122.22;;;-1.60;1.00;;;;;;4946657;28;20159;-82
2024/01/15 02:36:13;;;;;;;206.32;113.47;;;-1.50;99.90;;;;;;4909892;28;20088;-81
2024/01/15 02:38:40;;;;;;;198.48;109.57;;;-1.60;99.90;;;;;;4863316;28;20060;-82
2024/01/15 02:41:09;;;;;;;195.52;111.65;;;-1.50;99.90;;;;;;4821195;29;20066;-83
2024/01/15 02:43:37;;;;;;;185.00;107.75;;;-1.60;28.80;;;;;;4827292;29;20134;-82
2024/01/15 02:46:05;;;;;;;173.57;98.78;;;-1.60;1.00;;;;;;4826309;29;20077;-83
2024/01/15 02:48:33;;;;;;;183.48;101.40;;;-1.60;1.00;;;;;;4879562;28;20059;-83
2024/01/15 02:51:00;;;;;;;165.90;92.15;;;-1.50;1.00;;;;;;4948422;28;21253;-83
2024/01/15 02:53:28;;;;;;;134.50;79.47;;;-1.50;1.00;;;;;;4915625;28;20056;-83
2024/01/15 02:55:58;;;;;;;134.38;78.32;;;-1.60;1.00;;;;;;4919526;28;20073;-83
2024/01/15 02:58:26;;;;;;;134.80;77.18;;;-1.70;1.00;;;;;;4920112;28;27942;-82
2024/01/15 03:00:57;;;;;;;129.60;77.78;;;-1.60;99.90;;;;;;4929344;28;20048;-84
2024/01/15 03:03:24;;;;;;;152.57;89.38;;;-1.60;1.00;;;;;;4902261;28;20122;-83
2024/01/15 03:05:51;;;;;;;179.43;100.50;;;-1.60;99.90;;;;;;4901722;28;20843;-82
2024/01/15 03:08:19;;;;;;;187.88;107.00;;;-1.60;1.00;;;;;;4935186;28;20039;-83
2024/01/15 03:10:48;;;;;;;169.25;95.80;;;-1.60;99.90;;;;;;4911571;28;20032;-83
2024/01/15 03:13:15;;;;;;;147.20;85.05;;;-1.50;1.00;;;;;;4914428;28;20063;-84
2024/01/15 03:15:44;;;;;;;159.65;89.78;;;-1.30;1.00;;;;;;4964639;28;20060;-84
2024/01/15 03:18:12;;;;;;;149.20;86.47;;;-1.30;1.00;;;;;;4978466;28;20115;-83
2024/01/15 03:20:39;;;;;;;161.15;91.82;;;-1.30;39.00;;;;;;4931099;28;20054;-82
2024/01/15 03:23:07;;;;;;;168.13;97.05;;;-1.30;1.00;;;;;;4865321;28;20046;-82
2024/01/15 03:25:34;;;;;;;149.35;87.05;;;-1.30;1.00;;;;;;4825666;28;28206;-83
2024/01/15 03:28:02;;;;;;;151.65;84.35;;;-1.30;1.00;;;;;;4883210;28;20163;-83
2024/01/15 03:30:29;;;;;;;180.88;101.80;;;-1.20;1.00;;;;;;4890754;28;20064;-81
2024/01/15 03:32:58;;;;;;;163.52;91.80;;;-1.20;99.90;;;;;;4925982;28;20035;-83
2024/01/15 03:35:29;;;;;;;153.63;84.50;;;-1.20;1.00;;;;;;4963333;28;21154;-84
2024/01/15 03:37:56;;;;;;;150.65;83.53;;;-1.10;99.90;;;;;;4855553;28;20065;-83
2024/01/15 03:40:24;;;;;;;141.63;81.53;;;-1.10;99.90;;;;;;4928378;28;20059;-83
2024/01/15 03:42:52;;;;;;;131.52;74.28;;;-1.10;1.00;;;;;;4931222;28;20070;-83
2024/01/15 03:45:19;;;;;;;111.20;65.85;;;-1.10;1.00;;;;;;4951568;28;20046;-83
2024/01/15 03:47:47;;;;;;;118.38;70.20;;;-1.10;1.00;;;;;;4965657;28;20048;-84
2024/01/15 03:50:16;;;;;;;131.57;74.65;;;-1.10;1.00;;;;;;4957106;28;20055;-83
2024/01/15 03:52:43;;;;;;;122.10;72.25;;;-1.10;1.00;;;;;;4954695;28;20039;-83
2024/01/15 03:55:11;;;;;;;140.35;79.57;;;-1.00;1.00;;;;;;4955072;28;20081;-83
2024/01/15 03:57:38;;;;;;;153.57;91.75;;;-1.00;99.90;;;;;;4951812;28;20054;-83
2024/01/15 04:00:08;;;;;;;129.20;78.15;;;-1.00;75.20;;;;;;4931917;28;20070;-84
2024/01/15 04:02:35;;;;;;;129.73;77.03;;;-1.20;1.00;;;;;;4905819;28;20067;-83
2024/01/15 04:05:04;;;;;;;133.43;78.45;;;-1.30;99.90;;;;;;4872328;28;20061;-81
2024/01/15 04:07:33;;;;;;;139.02;82.68;;;-1.20;1.00;;;;;;4896747;28;20116;-85
2024/01/15 04:10:01;;;;;;;135.68;80.63;;;-1.20;99.90;;;;;;4924615;28;20050;-82
2024/01/15 04:12:28;;;;;;;130.68;75.55;;;-1.10;1.00;;;;;;4897252;28;20079;-83
2024/01/15 04:14:56;;;;;;;165.57;92.95;;;-1.00;1.00;;;;;;4881686;28;20043;-84
2024/01/15 04:17:23;;;;;;;146.52;83.13;;;-1.00;1.00;;;;;;4910217;28;20042;-83
2024/01/15 04:19:51;;;;;;;144.48;82.60;;;-1.00;99.90;;;;;;4958855;28;20137;-83
2024/01/15 04:22:18;;;;;;;162.40;86.30;;;-1.00;99.90;;;;;;4999335;28;20691;-82
2024/01/15 04:24:47;;;;;;;158.00;88.70;;;-1.00;1.00;;;;;;4880921;28;20039;-83
2024/01/15 04:27:15;;;;;;;126.63;67.72;;;-0.90;99.90;;;;;;4906492;28;21225;-83
2024/01/15 04:29:44;;;;;;;123.32;70.75;;;-0.80;1.00;;;;;;4926017;28;21253;-83
2024/01/15 04:32:11;;;;;;;141.90;79.60;;;-0.80;1.00;;;;;;4901212;28;20067;-82
2024/01/15 04:34:39;;;;;;;136.25;75.47;;;-0.80;1.00;;;;;;4922573;28;20051;-84
2024/01/15 04:37:06;;;;;;;149.32;87.38;;;-0.80;1.00;;;;;;4940704;28;20043;-82
2024/01/15 04:39:34;;;;;;;148.63;82.45;;;-0.70;1.00;;;;;;4932656;28;20066;-83
2024/01/15 04:42:03;;;;;;;155.23;87.30;;;-0.60;1.00;;;;;;4953762;28;20168;-83
2024/01/15 04:44:30;;;;;;;157.45;86.75;;;-0.50;1.00;;;;;;4969301;28;20062;-82
2024/01/15 04:46:58;;;;;;;153.00;86.07;;;-0.40;99.90;;;;;;4942378;28;20057;-83
2024/01/15 04:49:27;;;;;;;182.57;100.57;;;-0.40;99.90;;;;;;4963314;28;20070;-83
2024/01/15 04:51:54;;;;;;;170.63;96.32;;;-0.40;1.00;;;;;;4979305;28;20035;-82
2024/01/15 04:54:22;;;;;;;165.23;94.35;;;-0.40;1.00;;;;;;4990877;28;20051;-83
2024/01/15 04:56:49;;;;;;;152.48;89.40;;;-0.40;1.00;;;;;;4992577;28;20808;-81
2024/01/15 04:59:18;;;;;;;129.45;73.75;;;-0.40;1.00;;;;;;4981718;28;20055;-83
2024/01/15 05:01:45;;;;;;;115.28;65.90;;;-0.30;1.00;;;;;;4938721;28;20817;-83
2024/01/15 05:04:13;;;;;;;138.65;78.47;;;-0.30;99.90;;;;;;4962875;28;20081;-82
2024/01/15 05:06:41;;;;;;;142.43;77.70;;;-0.20;99.90;;;;;;4957815;28;20163;-83
2024/01/15 05:09:08;;;;;;;132.43;74.20;;;-0.10;1.00;;;;;;4989523;28;20057;-82
2024/01/15 05:11:36;;;;;;;133.40;76.57;;;-0.10;99.90;;;;;;4994298;28;20077;-83
2024/01/15 05:14:03;;;;;;;136.35;78.28;;;-0.10;99.90;;;;;;4966692;28;20046;-83
2024/01/15 05:16:32;;;;;;;137.45;79.15;;;-0.10;99.90;;;;;;4946601;28;20086;-82
2024/01/15 05:19:00;;;;;;;131.18;74.70;;;-0.10;99.90;;;;;;4974269;28;22366;-82
2024/01/15 05:21:28;;;;;;;171.75;99.10;;;0.00;99.90;;;;;;4910129;28;20064;-82
2024/01/15 05:23:55;;;;;;;170.30;98.68;;;0.10;99.90;;;;;;4904512;28;20056;-82
2024/01/15 05:26:23;;;;;;;208.10;118.07;;;0.00;99.90;;;;;;4913550;28;20110;-83
2024/01/15 05:28:50;;;;;;;176.05;101.07;;;0.00;1.00;;;;;;4886226;28;20070;-82
2024/01/15 05:31:17;;;;;;;167.27;95.43;;;0.00;99.90;;;;;;4883789;28;21457;-81
2024/01/15 05:33:46;;;;;;;171.65;98.45;;;0.10;1.00;;;;;;4896764;28;20044;-83
2024/01/15 05:36:15;;;;;;;140.23;84.43;;;0.10;1.00;;;;;;4878903;28;20088;-82
2024/01/15 05:38:42;;;;;;;134.13;77.22;;;0.10;1.00;;;;;;4911459;28;20052;-83
2024/01/15 05:41:11;;;;;;;112.45;64.15;;;0.10;1.00;;;;;;4893596;28;20037;-82
2024/01/15 05:43:39;;;;;;;149.77;77.65;;;0.10;1.00;;;;;;4924143;28;20143;-82
2024/01/15 05:46:08;;;;;;;202.25;100.30;;;0.10;1.00;;;;;;4943228;28;20042;-83
2024/01/15 05:48:36;;;;;;;334.83;146.70;;;0.20;99.90;;;;;;4970584;28;20054;-83
2024/01/15 05:51:05;;;;;;;182.68;94.18;;;0.20;1.00;;;;;;4942334;28;20063;-84
2024/01/15 05:53:32;;;;;;;160.45;89.93;;;0.40;99.90;;;;;;4924946;28;20078;-82
2024/01/15 05:56:01;;;;;;;168.98;89.65;;;0.50;1.00;;;;;;4962757;28;20069;-81
2024/01/15 05:58:30;;;;;;;187.15;95.97;;;0.50;1.00;;;;;;4916925;28;20052;-82
2024/01/15 06:00:58;;;;;;;440.88;178.27;;;0.60;1.00;;;;;;4930175;28;20123;-82
2024/01/15 06:03:25;;;;;;;318.75;143.43;;;0.60;99.90;;;;;;4952881;28;20078;-82
2024/01/15 06:05:53;;;;;;;393.63;166.38;;;0.60;99.90;;;;;;4947972;28;20073;-83
2024/01/15 06:08:22;;;;;;;457.33;189.82;;;0.70;99.90;;;;;;4978418;28;20049;-83
2024/01/15 06:10:50;;;;;;;292.50;132.20;;;0.60;1.00;;;;;;4949382;28;20054;-82
2024/01/15 06:13:17;;;;;;;288.27;127.15;;;0.70;1.00;;;;;;4947090;28;20058;-82
2024/01/15 06:15:48;;;;;;;466.27;185.55;;;0.60;99.90;;;;;;4970738;28;20055;-83
2024/01/15 06:18:15;;;;;;;402.25;158.88;;;0.70;1.00;;;;;;4951769;28;20141;-82
2024/01/15 06:20:43;;;;;;;246.55;115.53;;;0.90;18.60;;;;;;4958250;28;20054;-85
2024/01/15 06:23:11;;;;;;;241.18;126.53;;;1.00;1.00;;;;;;4963868;28;20047;-84
2024/01/15 06:25:40;;;;;;;240.82;128.23;;;1.00;1.00;;;;;;4936622;28;22161;-84
2024/01/15 06:28:07;;;;;;;252.10;137.80;;;1.00;1.00;;;;;;4941731;28;20091;-82
2024/01/15 06:30:37;;;;;;;194.55;106.30;;;1.00;99.90;;;;;;4942339;28;22378;-81
2024/01/15 06:33:05;;;;;;;246.80;124.90;;;1.10;1.00;;;;;;4924141;28;20059;-82
2024/01/15 06:35:34;;;;;;;304.30;146.85;;;1.00;1.00;;;;;;4945117;28;20111;-80
2024/01/15 06:38:01;;;;;;;305.25;148.00;;;1.10;1.00;;;;;;4959686;28;20062;-82
2024/01/15 06:40:29;;;;;;;245.27;124.82;;;1.10;99.90;;;;;;4963112;28;20133;-81
2024/01/15 06:42:57;;;;;;;243.43;128.18;;;1.20;99.90;;;;;;4967944;28;20119;-83
2024/01/15 06:45:25;;;;;;;211.90;117.05;;;1.30;1.00;;;;;;4951375;28;21349;-83
2024/01/15 06:48:01;;;;;;;163.52;93.10;;;1.40;1.00;;;;;;4945350;28;20096;-81
2024/01/15 06:53:15;;;;;;;152.05;88.88;;;1.40;1.00;;;;;;4931241;28;20110;-82
2024/01/15 06:55:51;;;;;;;164.70;96.63;;;1.60;1.00;;;;;;4924097;28;20135;-83
2024/01/15 06:58:20;;;;;;;183.85;107.47;;;1.60;1.00;;;;;;4878830;28;20120;-86
2024/01/15 07:00:50;;;;;;;204.15;116.68;;;1.70;1.00;;;;;;4824504;28;20232;-84
2024/01/15 07:03:24;;;;;;;209.32;119.82;;;1.80;1.00;;;;;;4869030;28;20064;-84
2024/01/15 07:05:52;;;;;;;225.52;128.10;;;1.90;99.90;;;;;;4814683;28;20108;-84
2024/01/15 07:08:20;;;;;;;215.10;119.70;;;2.00;99.90;;;;;;4777735;28;20058;-84
2024/01/15 07:10:51;;;;;;;234.27;131.77;;;2.10;1.00;;;;;;4834170;28;20079;-83
2024/01/15 07:13:25;;;;;;;238.20;138.82;;;2.20;1.00;;;;;;4845772;28;20159;-85
2024/01/15 07:15:53;;;;;;;255.30;153.13;;;2.30;99.90;;;;;;4823827;28;20154;-87
2024/01/15 07:18:22;;;;;;;271.67;156.57;;;2.30;1.00;;;;;;4854306;28;20148;-85
2024/01/15 07:21:01;;;;;;;248.07;145.65;;;2.40;1.00;;;;;;4819336;28;20079;-88
2024/01/15 07:23:28;;;;;;;265.08;150.40;;;2.40;99.90;;;;;;4797461;28;20121;-86
2024/01/15 07:26:02;;;;;;;240.75;142.88;;;2.50;99.90;;;;;;4815834;28;20061;-86
2024/01/15 07:29:08;;;;;;;243.60;146.43;;;2.50;99.40;;;;;;4833208;28;26816;-87
2024/01/15 07:52:13;;;;;;;;;;;;;;;;;;;;;
2024/01/15 09:02:02;;;;;;;484.60;276.92;;;4.60;1.00;;;;;;5737511;25;20204;-78
2024/01/15 09:53:55;;;;;;;310.63;194.77;;;5.70;1.00;;;;;;5869496;24;20026;-79
2024/01/15 13:20:17;;;;;;;410.48;293.02;;;7.10;99.90;;;;;;5887827;24;20053;-75
2024/01/15 13:22:49;;;;;;;429.85;313.50;;;7.20;99.90;;;;;;5922815;24;20031;-77
2024/01/15 13:25:48;;;;;;;385.35;283.60;;;7.00;99.90;;;;;;5938464;24;20061;-77
2024/01/15 14:37:40;;;;;;;466.65;351.58;;;6.70;99.90;;;;;;5887532;24;20021;-75
2024/01/15 15:52:50;;;;;;;;;;;6.10;99.90;;;;;;6051288;23;20045;-78
2024/01/15 15:55:58;;;;;;;599.22;404.52;;;6.10;99.90;;;;;;6093981;23;19917;-78
2024/01/15 18:07:22;;;;;;;;;;;;;;;;;;;;;
2024/01/15 20:36:17;;;;;;;41.30;20.98;;;3.70;99.90;;;;;;6203081;22;20019;-78
2024/01/15 20:38:45;;;;;;;28.75;19.60;;;3.60;99.90;;;;;;6252036;22;20023;-77
2024/01/15 20:41:15;;;;;;;36.97;22.60;;;3.60;99.90;;;;;;6276774;22;20018;-80
2024/01/15 20:43:43;;;;;;;40.03;25.20;;;3.60;99.90;;;;;;6287890;22;20106;-77
2024/01/15 20:46:12;;;;;;;57.80;31.20;;;3.70;99.90;;;;;;6287090;22;20012;-77
2024/01/15 20:48:40;;;;;;;43.47;24.88;;;3.80;99.90;;;;;;6290409;22;20444;-74
2024/01/15 20:51:10;;;;;;;66.78;31.08;;;3.70;99.90;;;;;;6252918;22;20019;-77
2024/01/15 20:53:41;;;;;;;45.75;25.48;;;3.60;99.90;;;;;;6251510;22;20551;-78
2024/01/15 20:56:10;;;;;;;33.33;22.13;;;3.50;99.90;;;;;;6290943;22;20016;-76
2024/01/15 20:58:38;;;;;;;30.73;21.33;;;3.60;99.90;;;;;;6291288;22;20046;-79
2024/01/15 21:03:49;;;;;;;33.60;23.83;;;3.70;99.90;;;;;;6288393;22;20029;-77
2024/01/15 21:06:17;;;;;;;37.17;24.10;;;3.70;99.90;;;;;;6251653;22;20527;-77
2024/01/15 21:08:49;;;;;;;33.50;24.48;;;3.70;99.90;;;;;;6289202;22;20019;-79
2024/01/15 21:11:18;;;;;;;28.60;20.52;;;3.70;99.90;;;;;;6289120;22;20019;-77
2024/01/15 21:13:45;;;;;;;31.58;21.92;;;3.70;99.90;;;;;;6290779;22;20022;-78
2024/01/15 21:16:15;;;;;;;29.95;19.13;;;3.70;99.90;;;;;;6252695;22;20023;-79
2024/01/15 21:18:44;;;;;;;25.90;18.77;;;3.60;99.90;;;;;;6252142;22;20046;-78
2024/01/15 21:21:12;;;;;;;26.17;17.85;;;3.60;99.90;;;;;;6253056;22;20096;-78
2024/01/15 21:23:40;;;;;;;30.17;19.55;;;3.60;99.90;;;;;;6290341;22;20012;-78
2024/01/15 21:26:09;;;;;;;30.17;19.45;;;3.60;99.90;;;;;;6293220;22;20022;-78
2024/01/15 21:28:37;;;;;;;36.00;23.10;;;3.50;99.90;;;;;;6291839;22;20023;-78
2024/01/15 21:31:06;;;;;;;36.05;21.40;;;3.50;99.90;;;;;;6289921;22;20065;-79
2024/01/15 21:33:36;;;;;;;45.72;25.05;;;3.50;99.90;;;;;;6292541;22;20072;-79
2024/01/15 21:36:08;;;;;;;35.58;20.13;;;3.70;99.90;;;;;;6254748;22;20020;-77
2024/01/15 22:23:36;;;;;;;9.75;5.30;;;3.70;1.00;;;;;;5874804;24;20025;-75
2024/01/15 22:26:04;;;;;;;12.02;6.03;;;3.50;1.00;;;;;;5894969;24;20025;-75
2024/01/15 22:28:32;;;;;;;10.35;5.38;;;3.40;1.00;;;;;;5903405;24;20032;-76
2024/01/15 22:30:59;;;;;;;10.07;5.63;;;3.30;1.00;;;;;;5895611;24;20029;-75
2024/01/15 22:33:26;;;;;;;14.27;7.38;;;3.30;51.70;;;;;;5936063;23;20077;-76
2024/01/15 22:35:55;;;;;;;14.55;7.47;;;3.00;1.00;;;;;;6081167;23;20079;-77
2024/01/15 22:38:23;;;;;;;12.95;7.28;;;2.90;1.00;;;;;;6151159;23;20028;-76
2024/01/15 22:40:50;;;;;;;8.30;5.13;;;2.90;1.00;;;;;;6202686;23;20040;-76
2024/01/15 22:43:18;;;;;;;10.50;5.93;;;2.90;99.90;;;;;;6189118;23;20025;-75
2024/01/15 22:45:47;;;;;;;10.93;6.63;;;3.00;54.50;;;;;;6186318;23;20048;-74
2024/01/15 22:48:14;;;;;;;9.18;5.70;;;3.10;1.00;;;;;;6192976;23;20021;-75
2024/01/15 22:50:42;;;;;;;8.70;4.93;;;3.10;1.00;;;;;;6207312;23;20024;-77
2024/01/15 22:53:11;;;;;;;9.52;5.70;;;3.10;1.00;;;;;;6185352;23;20044;-74
2024/01/15 22:55:39;;;;;;;13.23;7.65;;;3.00;43.80;;;;;;6184358;23;20021;-76
2024/01/15 22:58:06;;;;;;;15.60;8.20;;;3.00;99.90;;;;;;6184664;23;20020;-77
2024/01/15 23:00:34;;;;;;;20.80;10.32;;;2.90;99.90;;;;;;6185853;23;20024;-76
2024/01/15 23:03:02;;;;;;;20.25;10.50;;;2.70;99.90;;;;;;6201784;23;20097;-74
2024/01/15 23:05:29;;;;;;;22.30;10.27;;;2.70;1.00;;;;;;6190384;23;20068;-74
2024/01/15 23:07:58;;;;;;;17.10;8.77;;;2.70;1.00;;;;;;6187106;23;20020;-74
2024/01/15 23:10:27;;;;;;;13.77;6.95;;;2.70;23.20;;;;;;6186595;23;20021;-74
2024/01/15 23:12:55;;;;;;;12.82;6.72;;;2.60;99.90;;;;;;6195651;23;20013;-75
2024/01/15 23:15:23;;;;;;;14.75;6.97;;;2.70;99.90;;;;;;6195515;23;20013;-75
2024/01/15 23:17:50;;;;;;;11.30;5.90;;;2.70;99.90;;;;;;6184822;23;20107;-75
2024/01/15 23:20:18;;;;;;;10.88;5.95;;;2.70;99.90;;;;;;6192079;23;20020;-74
2024/01/15 23:22:46;;;;;;;13.27;6.18;;;2.70;99.90;;;;;;6214096;23;20017;-75
2024/01/15 23:25:14;;;;;;;9.45;5.32;;;2.60;99.90;;;;;;6201853;23;20021;-74
2024/01/15 23:27:43;;;;;;;12.05;5.93;;;2.60;99.90;;;;;;6204159;23;20028;-74
2024/01/15 23:30:11;;;;;;;10.68;5.60;;;2.60;99.90;;;;;;6209944;23;20024;-76
2024/01/15 23:32:39;;;;;;;11.90;5.75;;;2.60;99.90;;;;;;6188731;23;20025;-74
2024/01/15 23:35:07;;;;;;;12.43;6.53;;;2.60;99.90;;;;;;6194845;23;20012;-76
2024/01/15 23:37:34;;;;;;;17.58;8.98;;;2.70;99.90;;;;;;6196959;23;20013;-74
2024/01/15 23:40:02;;;;;;;21.60;10.52;;;2.60;99.90;;;;;;6199251;23;20013;-77
2024/01/15 23:42:29;;;;;;;24.58;12.18;;;2.60;99.90;;;;;;6185130;23;20028;-75
2024/01/15 23:44:59;;;;;;;22.75;11.25;;;2.50;99.90;;;;;;6194601;23;20072;-74
2024/01/15 23:47:26;;;;;;;22.70;11.30;;;2.50;99.90;;;;;;6183601;23;20024;-75
2024/01/15 23:49:54;;;;;;;21.05;11.18;;;2.60;99.90;;;;;;6184604;23;20025;-75
2024/01/15 23:52:22;;;;;;;28.60;15.13;;;2.70;99.90;;;;;;6197376;23;20013;-74
2024/01/15 23:54:49;;;;;;;28.52;14.65;;;2.60;99.90;;;;;;6182486;23;20027;-75
2024/01/15 23:57:17;;;;;;;20.67;11.05;;;2.60;99.90;;;;;;6193916;23;20377;-75
2024/01/15 23:59:44;;;;;;;23.92;12.98;;;2.40;99.90;;;;;;6182583;23;20464;-74
